createdAt,value
2023-03-07T00:01:27.046Z,99415.41
2023-03-07T00:03:55.402Z,99409.13
2023-03-07T00:06:23.733Z,99411.28
2023-03-07T00:08:52.584Z,99399.28
2023-03-07T00:11:21.198Z,99402.16
2023-03-07T00:13:49.308Z,99399.94
2023-03-07T00:16:20.850Z,99402.84
2023-03-07T00:18:49.823Z,99392.16
2023-03-07T00:21:19.837Z,99383.03
2023-03-07T00:23:48.807Z,99374.13
2023-03-07T00:26:22.190Z,99363.63
2023-03-07T00:28:52.018Z,99356.84
2023-03-07T00:31:22.336Z,99346.72
2023-03-07T00:33:50.608Z,99344.00
2023-03-07T00:36:20.846Z,99340.88
2023-03-07T00:38:49.794Z,99334.00
2023-03-07T00:41:19.625Z,99332.28
2023-03-07T00:43:48.278Z,99323.00
2023-03-07T00:46:17.904Z,99315.09
2023-03-07T00:48:48.021Z,99313.13
2023-03-07T00:51:19.366Z,99297.19
2023-03-07T00:53:48.311Z,99296.69
2023-03-07T00:56:17.822Z,99297.91
2023-03-07T00:58:47.179Z,99290.00
2023-03-07T01:01:17.941Z,99291.50
2023-03-07T01:03:49.651Z,99277.69
2023-03-07T01:06:19.792Z,99276.47
2023-03-07T01:08:48.106Z,99268.47
2023-03-07T01:11:16.254Z,99266.84
2023-03-07T01:13:44.393Z,99271.47
2023-03-07T01:16:14.788Z,99246.56
2023-03-07T01:18:43.314Z,99249.50
2023-03-07T01:21:17.422Z,99244.88
2023-03-07T01:23:45.592Z,99240.09
2023-03-07T01:26:14.556Z,99235.97
2023-03-07T01:28:42.748Z,99223.53
2023-03-07T01:31:11.137Z,99232.16
2023-03-07T01:33:39.717Z,99217.50
2023-03-07T01:36:19.842Z,99214.47
2023-03-07T01:38:48.261Z,99212.56
2023-03-07T01:41:17.325Z,99196.94
2023-03-07T01:43:45.583Z,99200.59
2023-03-07T01:46:34.742Z,99201.28
2023-03-07T01:49:07.497Z,99186.25
2023-03-07T01:51:39.271Z,99182.50
2023-03-07T01:54:09.444Z,99183.38
2023-03-07T01:56:39.172Z,99181.84
2023-03-07T01:59:07.852Z,99165.38
2023-03-07T02:01:37.275Z,99173.16
2023-03-07T02:04:12.799Z,99160.19
2023-03-07T02:06:42.104Z,99160.66
2023-03-07T02:09:15.689Z,99152.94
2023-03-07T02:11:45.990Z,99149.00
2023-03-07T02:14:14.171Z,99145.31
2023-03-07T02:16:43.188Z,99138.69
2023-03-07T02:19:37.794Z,99131.56
2023-03-07T02:22:12.507Z,99135.53
2023-03-07T02:24:49.772Z,99128.53
2023-03-07T02:27:19.061Z,99120.94
2023-03-07T02:29:46.955Z,99116.69
2023-03-07T02:32:15.883Z,99120.19
2023-03-07T02:34:44.033Z,99111.09
2023-03-07T02:37:14.663Z,99111.22
2023-03-07T02:39:44.734Z,99098.69
2023-03-07T02:42:16.997Z,99099.75
2023-03-07T02:44:48.171Z,99093.53
2023-03-07T02:47:16.066Z,99100.66
2023-03-07T02:49:44.069Z,99090.31
2023-03-07T02:52:12.026Z,99081.66
2023-03-07T02:54:39.908Z,99095.38
2023-03-07T02:57:07.825Z,99089.00
2023-03-07T02:59:35.799Z,99086.25
2023-03-07T03:02:05.136Z,99074.50
2023-03-07T03:04:33.186Z,99072.47
2023-03-07T03:07:01.104Z,99068.81
2023-03-07T03:09:29.005Z,99065.53
2023-03-07T03:11:57.110Z,99061.69
2023-03-07T03:14:25.431Z,99055.00
2023-03-07T03:16:53.717Z,99050.19
2023-03-07T03:19:23.142Z,99043.84
2023-03-07T03:21:51.204Z,99042.34
2023-03-07T03:24:19.336Z,99040.84
2023-03-07T03:26:47.259Z,99031.69
2023-03-07T03:29:15.285Z,99023.53
2023-03-07T03:31:43.349Z,99027.69
2023-03-07T03:34:11.292Z,99025.16
2023-03-07T03:36:40.653Z,99023.66
2023-03-07T03:39:11.117Z,99020.94
2023-03-07T03:41:39.260Z,99026.88
2023-03-07T03:44:08.776Z,99013.63
2023-03-07T03:46:37.298Z,99028.16
2023-03-07T03:49:05.728Z,99023.25
2023-03-07T03:51:34.053Z,99014.38
2023-03-07T03:54:04.003Z,99006.06
2023-03-07T03:56:32.201Z,99005.59
2023-03-07T03:59:00.261Z,99000.34
2023-03-07T04:01:29.320Z,99003.94
2023-03-07T04:03:58.243Z,99007.22
2023-03-07T04:06:28.437Z,98992.41
2023-03-07T04:08:56.505Z,98992.31
2023-03-07T04:11:26.865Z,98995.16
2023-03-07T04:13:54.915Z,98993.59
2023-03-07T04:16:23.494Z,98990.88
2023-03-07T04:18:52.445Z,98992.81
2023-03-07T04:21:21.320Z,98984.06
2023-03-07T04:23:50.537Z,98982.50
2023-03-07T04:26:18.501Z,98970.25
2023-03-07T04:28:49.512Z,98964.53
2023-03-07T04:31:20.241Z,98964.22
2023-03-07T04:33:48.815Z,98957.69
2023-03-07T04:36:17.666Z,98965.03
2023-03-07T04:38:46.227Z,98956.19
2023-03-07T04:41:15.931Z,98948.38
2023-03-07T04:43:45.021Z,98948.63
2023-03-07T04:46:16.251Z,98942.88
2023-03-07T04:48:44.762Z,98938.47
2023-03-07T04:51:13.420Z,98928.53
2023-03-07T04:53:41.557Z,98934.75
2023-03-07T04:56:10.881Z,98927.91
2023-03-07T04:58:39.995Z,98931.81
2023-03-07T05:01:07.930Z,98922.91
2023-03-07T05:03:37.604Z,98918.72
2023-03-07T05:06:07.694Z,98914.97
2023-03-07T05:08:36.585Z,98905.59
2023-03-07T05:11:04.763Z,98917.84
2023-03-07T05:13:32.843Z,98913.44
2023-03-07T05:16:01.085Z,98900.25
2023-03-07T05:18:29.425Z,98896.63
2023-03-07T05:20:58.887Z,98893.38
2023-03-07T05:23:26.957Z,98895.59
2023-03-07T05:25:55.169Z,98896.34
2023-03-07T05:28:23.311Z,98898.75
2023-03-07T05:30:51.493Z,98888.50
2023-03-07T05:33:20.168Z,98893.13
2023-03-07T05:35:48.236Z,98904.44
2023-03-07T05:38:17.754Z,98901.69
2023-03-07T05:40:46.254Z,98895.81
2023-03-07T05:43:14.395Z,98891.47
2023-03-07T05:45:42.393Z,98890.25
2023-03-07T05:48:11.239Z,98895.13
2023-03-07T05:50:39.832Z,98894.63
2023-03-07T05:53:07.799Z,98883.84
2023-03-07T05:55:37.216Z,98880.66
2023-03-07T05:58:05.541Z,98883.84
2023-03-07T06:00:33.369Z,98873.91
2023-03-07T06:03:04.073Z,98868.72
2023-03-07T06:05:31.954Z,98877.28
2023-03-07T06:07:59.792Z,98879.94
2023-03-07T06:10:27.876Z,98883.81
2023-03-07T06:12:57.396Z,98877.00
2023-03-07T06:15:25.524Z,98884.59
2023-03-07T06:17:53.757Z,98874.88
2023-03-07T06:20:21.920Z,98857.78
2023-03-07T06:22:49.946Z,98877.22
2023-03-07T06:25:21.691Z,98872.25
2023-03-07T06:27:50.227Z,98872.88
2023-03-07T06:30:19.724Z,98866.22
2023-03-07T06:32:47.714Z,98872.66
2023-03-07T06:35:15.729Z,98877.09
2023-03-07T06:37:43.602Z,98880.16
2023-03-07T06:40:12.781Z,98890.19
2023-03-07T06:42:40.738Z,98877.63
2023-03-07T06:45:10.082Z,98887.88
2023-03-07T06:47:40.116Z,98885.97
2023-03-07T06:50:09.527Z,98889.78
2023-03-07T06:52:37.598Z,98883.66
2023-03-07T06:55:06.374Z,98895.91
2023-03-07T06:57:38.318Z,98892.94
2023-03-07T07:00:08.053Z,98900.75
2023-03-07T07:02:36.263Z,98897.69
2023-03-07T07:05:06.477Z,98903.59
2023-03-07T07:07:34.932Z,98900.44
2023-03-07T07:10:04.994Z,98897.50
2023-03-07T07:12:33.437Z,98906.25
2023-03-07T07:15:02.453Z,98902.97
2023-03-07T07:17:31.244Z,98905.72
2023-03-07T07:20:00.659Z,98905.22
2023-03-07T07:22:30.237Z,98898.16
2023-03-07T07:25:00.509Z,98915.34
2023-03-07T07:27:28.780Z,98900.97
2023-03-07T07:29:57.152Z,98898.34
2023-03-07T07:32:25.125Z,98908.91
2023-03-07T07:34:53.216Z,98920.66
2023-03-07T07:37:24.500Z,98914.28
2023-03-07T07:39:53.924Z,98916.38
2023-03-07T07:42:22.924Z,98910.63
2023-03-07T07:44:51.989Z,98924.25
2023-03-07T07:47:20.085Z,98921.25
2023-03-07T07:49:48.023Z,98917.31
2023-03-07T07:52:16.559Z,98923.47
2023-03-07T07:54:47.098Z,98927.31
2023-03-07T07:57:16.452Z,98928.81
2023-03-07T07:59:44.620Z,98921.44
2023-03-07T08:02:14.270Z,98920.19
2023-03-07T08:04:42.347Z,98933.22
2023-03-07T08:07:10.184Z,98922.47
2023-03-07T08:09:38.877Z,98937.78
2023-03-07T08:12:07.747Z,98940.13
2023-03-07T08:14:37.369Z,98939.69
2023-03-07T08:17:05.646Z,98939.88
2023-03-07T08:19:33.814Z,98950.66
2023-03-07T08:22:02.419Z,98949.31
2023-03-07T08:24:40.491Z,98965.66
2023-03-07T08:27:09.297Z,98955.25
2023-03-07T08:29:38.717Z,98966.06
2023-03-07T08:32:07.542Z,98961.97
2023-03-07T08:34:35.489Z,98967.56
2023-03-07T08:37:03.600Z,98964.16
2023-03-07T08:39:31.485Z,98963.69
2023-03-07T08:41:59.483Z,98965.81
2023-03-07T08:44:28.058Z,98963.66
2023-03-07T08:46:57.349Z,98959.63
2023-03-07T08:49:25.513Z,98961.53
2023-03-07T08:51:53.651Z,98967.25
2023-03-07T08:54:21.631Z,98970.84
2023-03-07T08:56:49.931Z,98976.38
2023-03-07T08:59:21.038Z,98975.66
2023-03-07T09:01:49.174Z,98974.88
2023-03-07T09:04:21.918Z,98997.22
2023-03-07T09:06:49.882Z,98993.94
2023-03-07T09:09:19.017Z,98987.88
2023-03-07T09:11:47.466Z,98993.31
2023-03-07T09:14:15.568Z,98992.16
2023-03-07T09:16:45.173Z,98987.09
2023-03-07T09:19:13.231Z,98998.41
2023-03-07T09:21:42.519Z,99000.22
2023-03-07T09:24:10.474Z,98998.53
2023-03-07T09:26:38.501Z,98995.47
2023-03-07T09:29:06.486Z,99000.81
2023-03-07T09:31:34.382Z,99008.28
2023-03-07T09:34:02.300Z,99008.81
2023-03-07T09:36:30.218Z,99001.41
2023-03-07T09:39:03.815Z,99003.50
2023-03-07T09:41:54.968Z,99007.38
2023-03-07T09:44:34.295Z,99018.00
2023-03-07T09:47:13.444Z,99014.88
2023-03-07T09:49:47.517Z,99011.22
2023-03-07T09:52:17.914Z,99006.78
2023-03-07T09:54:51.018Z,99014.16
2023-03-07T09:57:24.108Z,99016.19
2023-03-07T09:59:56.491Z,99009.69
2023-03-07T10:02:29.712Z,99030.94
2023-03-07T10:05:04.590Z,99031.31
2023-03-07T10:07:33.983Z,99034.25
2023-03-07T10:10:06.560Z,99026.81
2023-03-07T10:13:11.722Z,99027.69
2023-03-07T10:15:47.268Z,99029.44
2023-03-07T10:18:46.472Z,99021.97
2023-03-07T10:21:19.670Z,99018.28
2023-03-07T10:24:27.566Z,99031.06
2023-03-07T10:27:02.613Z,99031.41
2023-03-07T10:29:36.310Z,99053.34
2023-03-07T10:32:22.482Z,99050.31
2023-03-07T10:34:59.365Z,99051.50
2023-03-07T10:37:42.088Z,99049.63
2023-03-07T10:40:18.339Z,99063.72
2023-03-07T10:42:47.942Z,99061.09
2023-03-07T10:45:17.264Z,99055.47
2023-03-07T10:47:45.409Z,99060.16
2023-03-07T10:50:31.030Z,99062.88
2023-03-07T10:53:02.104Z,99063.81
2023-03-07T10:55:37.304Z,99057.22
2023-03-07T10:58:22.160Z,99065.16
2023-03-07T11:01:03.826Z,99052.69
2023-03-07T11:03:52.234Z,99056.09
2023-03-07T11:06:30.402Z,99058.19
2023-03-07T11:08:58.973Z,99060.72
2023-03-07T11:11:33.116Z,99064.16
2023-03-07T11:14:13.368Z,99066.84
2023-03-07T11:16:44.280Z,99069.84
2023-03-07T11:19:43.727Z,99066.03
2023-03-07T11:22:24.947Z,99062.28
2023-03-07T11:25:00.881Z,99070.06
2023-03-07T11:27:36.188Z,99074.22
2023-03-07T11:30:31.486Z,99066.53
2023-03-07T11:33:12.084Z,99073.72
2023-03-07T11:35:54.373Z,99083.34
2023-03-07T11:38:36.999Z,99082.97
2023-03-07T11:41:11.370Z,99090.47
2023-03-07T11:43:53.495Z,99078.00
2023-03-07T11:46:36.730Z,99086.84
2023-03-07T11:49:21.781Z,99094.69
2023-03-07T11:52:00.963Z,99081.88
2023-03-07T11:54:39.227Z,99096.22
2023-03-07T11:57:16.199Z,99088.63
2023-03-07T12:00:19.119Z,99079.56
2023-03-07T12:03:16.738Z,99105.25
2023-03-07T12:06:19.841Z,99102.44
2023-03-07T12:09:09.287Z,99110.88
2023-03-07T12:11:54.071Z,99110.44
2023-03-07T12:14:31.057Z,99101.34
2023-03-07T12:17:11.460Z,99107.06
2023-03-07T12:20:06.007Z,99108.41
2023-03-07T12:22:44.898Z,99122.09
2023-03-07T12:25:24.710Z,99108.53
2023-03-07T12:28:34.446Z,99109.56
2023-03-07T12:31:09.968Z,99122.09
2023-03-07T12:33:51.362Z,99124.44
2023-03-07T12:36:30.916Z,99121.78
2023-03-07T12:39:06.665Z,99124.44
2023-03-07T12:42:02.016Z,99126.09
2023-03-07T12:44:39.693Z,99138.44
2023-03-07T12:47:18.045Z,99130.63
2023-03-07T12:49:54.667Z,99136.00
2023-03-07T12:52:33.380Z,99139.09
2023-03-07T12:55:09.916Z,99138.81
2023-03-07T12:57:43.905Z,99143.22
2023-03-07T13:00:19.160Z,99146.34
2023-03-07T13:02:54.235Z,99140.66
2023-03-07T13:05:23.161Z,99139.84
2023-03-07T13:07:53.873Z,99160.72
2023-03-07T13:10:25.828Z,99153.47
2023-03-07T13:12:54.201Z,99152.59
2023-03-07T13:15:48.392Z,99157.44
2023-03-07T13:18:29.207Z,99159.59
2023-03-07T13:21:33.936Z,99155.13
2023-03-07T13:24:38.119Z,99157.84
2023-03-07T13:27:20.747Z,99160.25
2023-03-07T13:30:19.232Z,99179.63
2023-03-07T13:32:59.271Z,99170.84
2023-03-07T13:35:57.181Z,99163.75
2023-03-07T13:38:55.118Z,99164.81
2023-03-07T13:41:47.377Z,99155.13
2023-03-07T13:44:30.774Z,99155.00
2023-03-07T13:47:05.147Z,99178.72
2023-03-07T13:49:45.289Z,99174.03
2023-03-07T13:52:33.544Z,99177.00
2023-03-07T13:55:06.012Z,99170.13
2023-03-07T13:57:42.228Z,99172.13
2023-03-07T14:00:33.073Z,99169.31
2023-03-07T14:03:03.411Z,99178.59
2023-03-07T14:05:35.623Z,99170.16
2023-03-07T14:08:04.027Z,99159.03
2023-03-07T14:10:33.304Z,99165.66
2023-03-07T14:13:30.017Z,99175.16
2023-03-07T14:16:15.188Z,99181.75
2023-03-07T14:18:56.349Z,99175.59
2023-03-07T14:21:37.190Z,99184.78
2023-03-07T14:24:29.314Z,99167.22
2023-03-07T14:27:00.884Z,99178.72
2023-03-07T14:29:31.093Z,99189.22
2023-03-07T14:32:02.763Z,99191.44
2023-03-07T14:34:32.981Z,99183.28
2023-03-07T14:37:04.578Z,99182.63
2023-03-07T14:39:44.916Z,99180.59
2023-03-07T14:42:24.018Z,99187.81
2023-03-07T14:45:05.702Z,99199.72
2023-03-07T14:47:47.806Z,99198.66
2023-03-07T14:50:19.115Z,99195.00
2023-03-07T14:52:47.994Z,99207.03
2023-03-07T14:55:22.998Z,99197.41
2023-03-07T14:57:54.842Z,99204.38
2023-03-07T15:00:32.767Z,99206.66
2023-03-07T15:03:04.623Z,99209.94
2023-03-07T15:05:35.489Z,99203.75
2023-03-07T15:08:03.849Z,99198.69
2023-03-07T15:10:40.968Z,99206.66
2023-03-07T15:13:14.016Z,99202.97
2023-03-07T15:15:50.656Z,99214.63
2023-03-07T15:18:27.128Z,99219.09
2023-03-07T15:20:58.458Z,99224.38
2023-03-07T15:23:29.837Z,99214.69
2023-03-07T15:26:05.196Z,99228.16
2023-03-07T15:28:39.810Z,99231.72
2023-03-07T15:31:11.033Z,99236.94
2023-03-07T15:33:49.296Z,99233.34
2023-03-07T15:36:30.014Z,99248.06
2023-03-07T15:39:41.554Z,99250.06
2023-03-07T15:42:20.741Z,99272.41
2023-03-07T15:44:55.582Z,99284.97
2023-03-07T15:47:27.479Z,99280.47
2023-03-07T15:49:59.117Z,99298.38
2023-03-07T15:52:38.000Z,99299.41
2023-03-07T15:55:08.522Z,99295.47
2023-03-07T15:57:42.687Z,99287.75
2023-03-07T16:00:19.137Z,99292.47
2023-03-07T16:02:48.870Z,99284.44
2023-03-07T16:05:37.632Z,99285.72
2023-03-07T16:08:14.880Z,99294.78
2023-03-07T16:10:49.764Z,99287.56
2023-03-07T16:13:20.420Z,99285.28
2023-03-07T16:16:00.137Z,99292.25
2023-03-07T16:18:31.190Z,99288.78
2023-03-07T16:20:59.565Z,99291.34
2023-03-07T16:23:31.302Z,99286.63
2023-03-07T16:26:02.918Z,99292.09
2023-03-07T16:28:31.127Z,99297.56
2023-03-07T16:30:59.793Z,99302.09
2023-03-07T16:33:29.280Z,99297.19
2023-03-07T16:35:57.254Z,99295.59
2023-03-07T16:38:25.842Z,99296.25
2023-03-07T16:40:57.727Z,99296.91
2023-03-07T16:43:33.550Z,99312.38
2023-03-07T16:46:03.179Z,99314.84
2023-03-07T16:48:32.835Z,99294.00
2023-03-07T16:51:01.256Z,99310.59
2023-03-07T16:53:29.606Z,99305.41
2023-03-07T16:55:59.855Z,99314.38
2023-03-07T16:58:33.217Z,99320.13
2023-03-07T17:01:01.832Z,99323.16
2023-03-07T17:03:34.639Z,99323.53
2023-03-07T17:06:02.851Z,99330.81
2023-03-07T17:08:31.234Z,99335.16
2023-03-07T17:10:59.588Z,99333.00
2023-03-07T17:13:28.205Z,99345.44
2023-03-07T17:16:03.036Z,99365.44
2023-03-07T17:18:36.026Z,99390.41
2023-03-07T17:21:06.193Z,99386.97
2023-03-07T17:23:34.396Z,99405.63
2023-03-07T17:26:05.556Z,99384.78
2023-03-07T17:28:33.908Z,99385.38
2023-03-07T17:31:02.849Z,99371.75
2023-03-07T17:33:30.996Z,99377.22
2023-03-07T17:36:00.984Z,99380.88
2023-03-07T17:38:30.710Z,99374.16
2023-03-07T17:40:58.876Z,99385.66
2023-03-07T17:43:26.971Z,99383.69
2023-03-07T17:45:55.567Z,99381.91
2023-03-07T17:48:24.066Z,99390.59
2023-03-07T17:50:52.664Z,99390.75
2023-03-07T17:53:21.165Z,99382.25
2023-03-07T17:55:53.405Z,99393.28
2023-03-07T17:58:21.518Z,99390.84
2023-03-07T18:00:49.765Z,99401.97
2023-03-07T18:03:17.841Z,99409.06
2023-03-07T18:05:45.911Z,99410.66
2023-03-07T18:08:13.868Z,99415.25
2023-03-07T18:10:41.957Z,99415.16
2023-03-07T18:13:15.026Z,99414.91
2023-03-07T18:15:47.082Z,99419.00
2023-03-07T18:18:16.460Z,99418.47
2023-03-07T18:20:44.736Z,99419.25
2023-03-07T18:23:16.821Z,99421.06
2023-03-07T18:25:44.855Z,99431.75
2023-03-07T18:28:15.438Z,99427.28
2023-03-07T18:30:43.489Z,99426.75
2023-03-07T18:33:11.548Z,99432.75
2023-03-07T18:35:42.036Z,99438.84
2023-03-07T18:38:10.227Z,99439.91
2023-03-07T18:40:38.355Z,99429.97
2023-03-07T18:43:06.537Z,99434.06
2023-03-07T18:45:36.297Z,99434.47
2023-03-07T18:48:04.872Z,99438.66
2023-03-07T18:50:32.786Z,99440.13
2023-03-07T18:53:03.534Z,99440.28
2023-03-07T18:55:34.795Z,99440.44
2023-03-07T18:58:02.909Z,99445.81
2023-03-07T19:00:32.646Z,99451.19
2023-03-07T19:03:04.764Z,99439.53
2023-03-07T19:05:33.158Z,99445.03
2023-03-07T19:08:04.529Z,99455.00
2023-03-07T19:10:35.894Z,99442.50
2023-03-07T19:13:07.780Z,99454.72
2023-03-07T19:15:37.157Z,99453.97
2023-03-07T19:18:08.295Z,99451.19
2023-03-07T19:20:36.312Z,99454.59
2023-03-07T19:23:04.422Z,99456.44
2023-03-07T19:25:35.551Z,99464.19
2023-03-07T19:28:03.685Z,99467.09
2023-03-07T19:30:35.295Z,99465.38
2023-03-07T19:33:03.977Z,99475.91
2023-03-07T19:35:36.566Z,99477.44
2023-03-07T19:38:04.867Z,99479.81
2023-03-07T19:40:33.012Z,99481.44
2023-03-07T19:43:01.539Z,99479.91
2023-03-07T19:45:34.954Z,99480.94
2023-03-07T19:48:21.192Z,99484.41
2023-03-07T19:50:54.730Z,99466.97
2023-03-07T19:53:43.093Z,99482.13
2023-03-07T19:56:21.387Z,99473.47
2023-03-07T19:58:55.803Z,99467.41
2023-03-07T20:01:35.464Z,99486.00
2023-03-07T20:04:20.019Z,99492.81
2023-03-07T20:06:53.605Z,99481.44
2023-03-07T20:09:31.463Z,99490.44
2023-03-07T20:12:04.752Z,99492.06
2023-03-07T20:14:46.326Z,99498.19
2023-03-07T20:17:36.493Z,99495.19
2023-03-07T20:20:19.482Z,99502.19
2023-03-07T20:22:49.250Z,99503.19
2023-03-07T20:28:20.492Z,99512.53
2023-03-07T20:31:40.711Z,99520.63
2023-03-07T20:34:29.198Z,99524.94
2023-03-07T20:37:08.880Z,99526.00
2023-03-07T20:39:57.312Z,99527.44
2023-03-07T20:42:54.420Z,99526.13
2023-03-07T20:45:36.023Z,99530.72
2023-03-07T20:48:08.048Z,99527.16
2023-03-07T20:51:28.479Z,99526.13
2023-03-07T20:54:25.141Z,99519.78
2023-03-07T20:57:25.714Z,99529.84
2023-03-07T21:00:24.440Z,99536.97
2023-03-07T21:03:05.184Z,99533.34
2023-03-07T21:05:46.731Z,99540.38
2023-03-07T21:08:51.565Z,99543.38
2023-03-07T21:11:40.437Z,99549.47
2023-03-07T21:14:38.770Z,99553.34
2023-03-07T21:17:23.038Z,99563.81
2023-03-07T21:23:16.085Z,99565.63
2023-03-07T21:26:11.278Z,99569.78
2023-03-07T21:29:26.078Z,99572.59
2023-03-07T21:32:22.230Z,99570.91
2023-03-07T21:35:03.170Z,99571.66
2023-03-07T21:41:06.635Z,99576.84
2023-03-07T21:43:51.948Z,99571.06
2023-03-07T21:46:20.367Z,99569.44
2023-03-07T21:48:49.834Z,99582.91
2023-03-07T21:51:18.463Z,99588.47
2023-03-07T21:53:48.373Z,99589.50
2023-03-07T21:56:17.886Z,99591.28
2023-03-07T21:58:49.802Z,99588.25
2023-03-07T22:01:19.702Z,99598.41
2023-03-07T22:03:49.471Z,99601.44
2023-03-07T22:06:17.500Z,99598.94
2023-03-07T22:08:45.587Z,99602.66
2023-03-07T22:11:14.168Z,99596.31
2023-03-07T22:13:44.807Z,99605.03
2023-03-07T22:16:15.519Z,99604.50
2023-03-07T22:18:43.502Z,99601.78
2023-03-07T22:21:17.279Z,99609.53
2023-03-07T22:23:46.129Z,99605.38
2023-03-07T22:26:14.411Z,99598.00
2023-03-07T22:28:42.703Z,99605.28
2023-03-07T22:31:13.598Z,99608.69
2023-03-07T22:33:42.950Z,99614.75
2023-03-07T22:36:14.786Z,99609.78
2023-03-07T22:38:43.962Z,99604.66
2023-03-07T22:41:14.050Z,99605.75
2023-03-07T22:43:42.534Z,99615.56
2023-03-07T22:46:11.238Z,99617.72
2023-03-07T22:48:39.724Z,99622.00
2023-03-07T22:51:14.346Z,99618.59
2023-03-07T22:53:42.411Z,99622.75
2023-03-07T22:56:15.478Z,99619.41
2023-03-07T22:58:43.891Z,99621.41
2023-03-07T23:01:13.927Z,99613.38
2023-03-07T23:03:44.973Z,99623.63
2023-03-07T23:06:22.055Z,99627.84
2023-03-07T23:08:52.041Z,99629.84
2023-03-07T23:11:21.566Z,99634.41
2023-03-07T23:13:49.913Z,99642.06
2023-03-07T23:16:20.083Z,99639.00
2023-03-07T23:18:50.773Z,99644.94
2023-03-07T23:21:25.698Z,99648.38
2023-03-07T23:23:55.074Z,99637.47
2023-03-07T23:26:36.272Z,99644.50
2023-03-07T23:29:26.453Z,99645.72
2023-03-07T23:32:19.994Z,99643.28
2023-03-07T23:34:57.723Z,99643.22
2023-03-07T23:37:42.819Z,99646.34
2023-03-07T23:40:37.680Z,99647.06
2023-03-07T23:43:11.519Z,99647.78
2023-03-07T23:45:52.825Z,99651.84
2023-03-07T23:48:43.293Z,99648.47
2023-03-07T23:51:24.452Z,99655.19
2023-03-07T23:54:13.647Z,99663.88
2023-03-07T23:56:49.627Z,99669.88
2023-03-07T23:59:23.590Z,99674.50
